WSSS

Singapore Changi International Airport

Singapore, Singapore
TAF WSSS 242300Z 2500/2606 15007KT 9999 FEW018CB SCT020 TEMPO 2505/2509 3000 TSRA FEW012CB BKN015
Issued Valid From Valid To
Sep-24 @ 23:00 UTC
(3 hours ago)
Sep-25 @ 00:00 UTC
(2 hours ago)
Sep-26 @ 06:00 UTC
(-1 days ago)
Sep-25 @ 00:00 to Sep-26 @ 06:00
TAF WSSS 242300Z 2500/2606 15007KT 9999 FEW018CB SCT020
Wind Visibility Clouds
150° at 7 knots 10,000+ meters
  • Few at 1,800' AGL
  • Scattered at 2,000' AGL
Temporary Sep-25 @ 05:00 to Sep-25 @ 09:00
TEMPO 2505/2509 3000 TSRA FEW012CB BKN015
Visibility Clouds Conditions
2,993 meters
  • Few at 1,200' AGL
  • Broken at 1,500' AGL
  • Thunderstorm
  • Rain
TAF WSSS 242300Z 2500/2606 15007KT 9999 FEW018CB SCT020 TEMPO 2505/2509 3000 TSRA FEW012CB BKN015
Issued Sep-24 @ 23:00 UTC
(3 hours ago)
Valid From Sep-25 @ 00:00 UTC
(2 hours ago)
Valid To Sep-26 @ 06:00 UTC
(-1 days ago)
Sep-25 @ 00:00 - Sep-26 @ 06:00
Wind Visibility
150° at 7 knots 10,000+ meters
Clouds
  • Few at 1,800' AGL
  • Scattered at 2,000' AGL
Temporary Sep-25 @ 05:00 - Sep-25 @ 09:00
Clouds
  • Few at 1,200' AGL
  • Broken at 1,500' AGL
Conditions
  • Thunderstorm
  • Rain